createdAt,value
2022-12-25T00:01:06.505Z,94077.66
2022-12-25T00:03:33.297Z,94081.91
2022-12-25T00:06:00.040Z,94067.13
2022-12-25T00:08:26.776Z,94068.34
2022-12-25T00:11:05.567Z,94067.50
2022-12-25T00:13:32.556Z,94072.97
2022-12-25T00:15:59.742Z,94070.66
2022-12-25T00:18:26.424Z,94059.41
2022-12-25T00:21:00.421Z,94060.19
2022-12-25T00:23:27.648Z,94054.38
2022-12-25T00:25:54.894Z,94057.84
2022-12-25T00:28:23.080Z,94060.16
2022-12-25T00:30:50.113Z,94059.03
2022-12-25T00:33:17.319Z,94060.56
2022-12-25T00:35:44.355Z,94053.16
2022-12-25T00:38:11.228Z,94048.13
2022-12-25T00:40:44.262Z,94050.06
2022-12-25T00:43:11.168Z,94050.53
2022-12-25T00:45:37.862Z,94040.34
2022-12-25T00:48:04.778Z,94045.00
2022-12-25T00:50:31.424Z,94042.31
2022-12-25T00:52:58.092Z,94033.38
2022-12-25T00:55:24.794Z,94032.66
2022-12-25T00:57:51.503Z,94022.16
2022-12-25T01:00:18.398Z,94022.19
2022-12-25T01:02:45.284Z,94021.81
2022-12-25T01:05:12.057Z,94017.53
2022-12-25T01:07:38.751Z,94031.47
2022-12-25T01:10:24.614Z,94039.97
2022-12-25T01:12:52.248Z,94044.59
2022-12-25T01:15:19.669Z,94045.81
2022-12-25T01:17:46.407Z,94043.44
2022-12-25T01:20:15.618Z,94053.56
2022-12-25T01:22:42.942Z,94042.69
2022-12-25T01:25:10.784Z,94049.25
2022-12-25T01:27:38.176Z,94043.84
2022-12-25T01:30:06.240Z,94053.63
2022-12-25T01:32:33.016Z,94053.25
2022-12-25T01:34:59.624Z,94059.50
2022-12-25T01:37:26.270Z,94065.72
2022-12-25T01:39:52.979Z,94063.72
2022-12-25T01:42:23.673Z,94060.66
2022-12-25T01:44:50.353Z,94069.66
2022-12-25T01:47:18.365Z,94069.28
2022-12-25T01:49:49.808Z,94073.56
2022-12-25T01:52:24.658Z,94068.09
2022-12-25T01:54:58.004Z,94072.81
2022-12-25T01:57:32.537Z,94072.72
2022-12-25T02:00:00.836Z,94068.50
2022-12-25T02:02:29.308Z,94063.47
2022-12-25T02:05:04.581Z,94057.25
2022-12-25T02:07:34.818Z,94071.66
2022-12-25T02:10:01.659Z,94063.44
2022-12-25T02:12:32.777Z,94062.69
2022-12-25T02:15:06.116Z,94060.72
2022-12-25T02:17:56.086Z,94065.00
2022-12-25T02:20:53.206Z,94064.16
2022-12-25T02:24:08.620Z,94048.59
2022-12-25T02:26:47.572Z,94047.81
2022-12-25T02:29:51.289Z,94051.31
2022-12-25T02:32:30.837Z,94056.78
2022-12-25T02:35:13.006Z,94042.41
2022-12-25T02:37:55.658Z,94040.91
2022-12-25T02:40:30.683Z,94038.91
2022-12-25T02:43:36.633Z,94043.16
2022-12-25T02:46:26.348Z,94037.72
2022-12-25T02:49:36.128Z,94041.59
2022-12-25T02:52:35.431Z,94035.75
2022-12-25T02:55:26.386Z,94031.88
2022-12-25T02:58:15.709Z,94025.59
2022-12-25T03:01:05.887Z,94026.72
2022-12-25T03:03:53.342Z,94027.47
2022-12-25T03:06:41.272Z,94023.56
2022-12-25T03:09:29.228Z,94024.31
2022-12-25T03:12:31.306Z,94024.34
2022-12-25T03:15:16.732Z,94020.09
2022-12-25T03:17:43.518Z,94036.16
2022-12-25T03:20:29.344Z,94030.00
2022-12-25T03:23:15.324Z,94023.88
2022-12-25T03:26:00.685Z,94028.22
2022-12-25T03:28:27.464Z,94026.72
2022-12-25T03:31:11.871Z,94022.84
2022-12-25T03:34:07.980Z,94018.94
2022-12-25T03:37:12.930Z,94014.25
2022-12-25T03:39:57.331Z,94019.00
2022-12-25T03:42:49.624Z,94021.25
2022-12-25T03:45:44.886Z,94011.59
2022-12-25T03:48:12.900Z,94014.31
2022-12-25T03:51:10.665Z,94005.75
2022-12-25T03:54:09.854Z,94006.03
2022-12-25T03:56:56.837Z,93997.03
2022-12-25T03:59:43.227Z,93993.19
2022-12-25T04:02:28.924Z,93994.75
2022-12-25T04:05:14.542Z,93999.09
2022-12-25T04:08:00.052Z,93990.94
2022-12-25T04:10:45.600Z,93986.28
2022-12-25T04:13:31.100Z,93993.66
2022-12-25T04:16:16.373Z,93996.00
2022-12-25T04:19:01.693Z,94004.94
2022-12-25T04:21:46.937Z,93997.56
2022-12-25T04:24:32.264Z,93990.63
2022-12-25T04:27:17.504Z,93986.66
2022-12-25T04:30:02.535Z,93990.47
2022-12-25T04:32:47.950Z,93992.00
2022-12-25T04:35:33.423Z,93990.53
2022-12-25T04:38:00.107Z,93987.06
2022-12-25T04:40:26.925Z,93994.06
2022-12-25T04:42:53.611Z,93989.78
2022-12-25T04:45:20.378Z,93996.41
2022-12-25T04:47:47.101Z,93995.28
2022-12-25T04:50:13.821Z,94007.66
2022-12-25T04:52:41.630Z,94002.66
2022-12-25T04:55:09.225Z,94006.53
2022-12-25T04:57:35.825Z,93995.16
2022-12-25T05:00:03.103Z,93989.69
2022-12-25T05:02:29.949Z,93988.91
2022-12-25T05:04:56.752Z,93978.78
2022-12-25T05:07:23.393Z,93983.84
2022-12-25T05:09:50.095Z,93984.59
2022-12-25T05:12:16.721Z,93970.59
2022-12-25T05:14:43.380Z,93972.25
2022-12-25T05:17:10.085Z,93969.91
2022-12-25T05:19:36.709Z,93962.91
2022-12-25T05:22:03.307Z,93966.81
2022-12-25T05:24:30.058Z,93970.69
2022-12-25T05:26:56.734Z,93962.53
2022-12-25T05:29:23.386Z,93967.19
2022-12-25T05:31:50.093Z,93969.94
2022-12-25T05:34:16.788Z,93959.41
2022-12-25T05:36:43.524Z,93956.69
2022-12-25T05:39:10.178Z,93956.31
2022-12-25T05:41:36.809Z,93945.84
2022-12-25T05:44:03.616Z,93943.88
2022-12-25T05:46:30.378Z,93943.50
2022-12-25T05:48:57.021Z,93943.91
2022-12-25T05:51:23.597Z,93952.84
2022-12-25T05:53:50.330Z,93949.38
2022-12-25T05:56:17.212Z,93945.09
2022-12-25T05:58:43.824Z,93944.31
2022-12-25T06:01:16.026Z,93951.72
2022-12-25T06:03:42.919Z,93943.16
2022-12-25T06:06:10.661Z,93941.19
2022-12-25T06:08:37.695Z,93938.88
2022-12-25T06:11:06.575Z,93941.19
2022-12-25T06:13:34.815Z,93930.28
2022-12-25T06:16:07.707Z,93932.59
2022-12-25T06:18:38.920Z,93931.41
2022-12-25T06:21:07.833Z,93941.09
2022-12-25T06:23:34.996Z,93935.28
2022-12-25T06:26:05.377Z,93931.75
2022-12-25T06:28:32.041Z,93936.44
2022-12-25T06:30:58.781Z,93930.19
2022-12-25T06:33:25.456Z,93937.53
2022-12-25T06:35:52.054Z,93928.97
2022-12-25T06:38:18.776Z,93928.88
2022-12-25T06:40:45.356Z,93925.00
2022-12-25T06:43:12.005Z,93934.69
2022-12-25T06:45:38.714Z,93942.09
2022-12-25T06:48:05.545Z,93934.31
2022-12-25T06:50:32.267Z,93944.03
2022-12-25T06:52:58.847Z,93942.47
2022-12-25T06:55:25.474Z,93948.28
2022-12-25T06:57:52.177Z,93958.72
2022-12-25T07:00:19.124Z,93955.22
2022-12-25T07:02:49.848Z,93956.00
2022-12-25T07:05:16.773Z,93955.97
2022-12-25T07:07:43.442Z,93945.44
2022-12-25T07:10:10.517Z,93955.47
2022-12-25T07:12:37.181Z,93946.91
2022-12-25T07:15:04.130Z,93955.41
2022-12-25T07:17:30.842Z,93949.16
2022-12-25T07:19:57.685Z,93951.09
2022-12-25T07:22:24.402Z,93953.41
2022-12-25T07:24:51.115Z,93961.56
2022-12-25T07:27:17.745Z,93966.78
2022-12-25T07:29:44.423Z,93968.44
2022-12-25T07:32:11.088Z,93956.00
2022-12-25T07:34:37.786Z,93966.91
2022-12-25T07:37:04.403Z,93958.38
2022-12-25T07:39:31.093Z,93952.09
2022-12-25T07:41:57.746Z,93957.47
2022-12-25T07:44:24.733Z,93952.53
2022-12-25T07:46:51.369Z,93948.28
2022-12-25T07:49:18.136Z,93945.91
2022-12-25T07:51:44.820Z,93941.72
2022-12-25T07:54:11.799Z,93947.66
2022-12-25T07:56:38.493Z,93935.66
2022-12-25T07:59:05.169Z,93938.75
2022-12-25T08:01:32.166Z,93942.97
2022-12-25T08:04:01.295Z,93939.13
2022-12-25T08:06:33.663Z,93949.16
2022-12-25T08:09:06.160Z,93947.53
2022-12-25T08:11:32.954Z,93948.66
2022-12-25T08:13:59.614Z,93944.00
2022-12-25T08:16:26.466Z,93942.47
2022-12-25T08:18:53.537Z,93946.38
2022-12-25T08:21:20.194Z,93942.28
2022-12-25T08:23:48.253Z,93940.09
2022-12-25T08:26:19.927Z,93944.06
2022-12-25T08:28:47.902Z,93945.66
2022-12-25T08:31:21.505Z,93955.31
2022-12-25T08:33:49.551Z,93957.63
2022-12-25T08:36:17.460Z,93952.13
2022-12-25T08:38:44.300Z,93942.88
2022-12-25T08:41:11.919Z,93947.53
2022-12-25T08:43:39.431Z,93960.88
2022-12-25T08:46:07.153Z,93955.13
2022-12-25T08:48:34.577Z,93956.81
2022-12-25T08:51:02.075Z,93956.00
2022-12-25T08:53:28.717Z,93955.69
2022-12-25T08:56:06.477Z,93961.13
2022-12-25T08:58:33.470Z,93951.78
2022-12-25T09:01:00.410Z,93947.41
2022-12-25T09:03:27.772Z,93940.22
2022-12-25T09:05:54.709Z,93934.72
2022-12-25T09:08:22.125Z,93935.44
2022-12-25T09:10:49.120Z,93937.63
2022-12-25T09:13:15.833Z,93945.25
2022-12-25T09:15:42.553Z,93946.28
2022-12-25T09:18:09.375Z,93939.53
2022-12-25T09:20:36.029Z,93939.81
2022-12-25T09:23:02.967Z,93947.16
2022-12-25T09:25:30.341Z,93937.22
2022-12-25T09:27:57.283Z,93938.50
2022-12-25T09:30:23.921Z,93929.59
2022-12-25T09:32:50.565Z,93923.84
2022-12-25T09:35:18.949Z,93930.38
2022-12-25T09:37:45.978Z,93924.28
2022-12-25T09:40:18.888Z,93910.59
2022-12-25T09:42:46.791Z,93905.81
2022-12-25T09:45:25.769Z,93911.13
2022-12-25T09:47:57.886Z,93901.94
2022-12-25T09:50:39.528Z,93902.75
2022-12-25T09:53:12.880Z,93906.97
2022-12-25T09:55:49.336Z,93907.72
2022-12-25T09:58:16.234Z,93900.41
2022-12-25T10:01:01.533Z,93903.38
2022-12-25T10:03:53.040Z,93904.91
2022-12-25T10:06:30.507Z,93900.78
2022-12-25T10:09:20.497Z,93902.59
2022-12-25T10:11:47.205Z,93902.09
2022-12-25T10:14:29.248Z,93899.63
2022-12-25T10:17:22.288Z,93898.50
2022-12-25T10:19:54.841Z,93897.72
2022-12-25T10:22:51.443Z,93879.06
2022-12-25T10:25:22.291Z,93883.84
2022-12-25T10:27:53.561Z,93878.44
2022-12-25T10:30:23.893Z,93875.59
2022-12-25T10:32:51.661Z,93873.94
2022-12-25T10:35:22.181Z,93879.13
2022-12-25T10:37:57.491Z,93876.59
2022-12-25T10:40:24.074Z,93882.63
2022-12-25T10:42:58.891Z,93867.53
2022-12-25T10:45:25.518Z,93872.31
2022-12-25T10:48:07.123Z,93863.66
2022-12-25T10:50:42.289Z,93860.91
2022-12-25T10:53:24.614Z,93857.91
2022-12-25T10:56:16.098Z,93852.69
2022-12-25T10:58:44.006Z,93854.50
2022-12-25T11:01:11.397Z,93844.19
2022-12-25T11:03:46.799Z,93849.88
2022-12-25T11:06:28.957Z,93853.28
2022-12-25T11:08:58.481Z,93845.84
2022-12-25T11:11:26.575Z,93841.03
2022-12-25T11:14:01.490Z,93845.75
2022-12-25T11:16:36.214Z,93843.72
2022-12-25T11:19:03.988Z,93847.72
2022-12-25T11:21:36.523Z,93837.38
2022-12-25T11:24:06.257Z,93835.25
2022-12-25T11:26:47.352Z,93836.00
2022-12-25T11:29:26.725Z,93837.94
2022-12-25T11:31:56.004Z,93833.72
2022-12-25T11:34:33.642Z,93838.78
2022-12-25T11:37:02.589Z,93837.25
2022-12-25T11:39:35.402Z,93839.41
2022-12-25T11:42:05.413Z,93831.44
2022-12-25T11:44:41.057Z,93841.28
2022-12-25T11:47:25.854Z,93822.06
2022-12-25T11:50:00.982Z,93823.44
2022-12-25T11:52:33.811Z,93823.41
2022-12-25T11:55:08.333Z,93814.72
2022-12-25T11:57:36.815Z,93799.91
2022-12-25T12:00:10.325Z,93801.81
2022-12-25T12:03:04.313Z,93808.28
2022-12-25T12:05:45.374Z,93798.34
2022-12-25T12:08:13.767Z,93799.19
2022-12-25T12:11:25.928Z,93790.78
2022-12-25T12:14:11.012Z,93790.44
2022-12-25T12:16:38.117Z,93778.53
2022-12-25T12:19:26.708Z,93790.13
2022-12-25T12:21:57.124Z,93788.66
2022-12-25T12:24:28.215Z,93792.59
2022-12-25T12:27:07.037Z,93803.16
2022-12-25T12:29:44.308Z,93802.69
2022-12-25T12:32:36.007Z,93799.78
2022-12-25T12:35:09.368Z,93799.94
2022-12-25T12:37:39.209Z,93803.72
2022-12-25T12:40:20.889Z,93795.22
2022-12-25T12:42:50.392Z,93790.28
2022-12-25T12:45:20.558Z,93773.56
2022-12-25T12:47:49.808Z,93777.47
2022-12-25T12:50:31.453Z,93777.59
2022-12-25T12:53:00.541Z,93774.88
2022-12-25T12:55:33.126Z,93778.50
2022-12-25T12:58:05.084Z,93770.16
2022-12-25T13:00:49.727Z,93774.00
2022-12-25T13:03:43.854Z,93776.34
2022-12-25T13:06:52.360Z,93775.34
2022-12-25T13:09:28.726Z,93776.81
2022-12-25T13:11:55.473Z,93774.00
2022-12-25T13:14:24.256Z,93774.78
2022-12-25T13:16:54.235Z,93773.53
2022-12-25T13:19:27.639Z,93777.47
2022-12-25T13:22:00.420Z,93782.09
2022-12-25T13:24:29.966Z,93783.25
2022-12-25T13:26:56.919Z,93783.53
2022-12-25T13:29:23.916Z,93783.94
2022-12-25T13:31:50.641Z,93787.03
2022-12-25T13:34:27.521Z,93775.56
2022-12-25T13:36:54.634Z,93780.44
2022-12-25T13:39:25.030Z,93784.72
2022-12-25T13:42:05.600Z,93775.75
2022-12-25T13:44:51.900Z,93773.38
2022-12-25T13:47:22.408Z,93771.41
2022-12-25T13:49:50.632Z,93776.44
2022-12-25T13:52:21.215Z,93776.44
2022-12-25T13:55:00.076Z,93777.31
2022-12-25T13:57:34.207Z,93780.59
2022-12-25T14:00:01.710Z,93783.19
2022-12-25T14:02:32.142Z,93786.38
2022-12-25T14:04:59.001Z,93807.72
2022-12-25T14:07:27.326Z,93793.50
2022-12-25T14:09:58.306Z,93797.84
2022-12-25T14:12:25.942Z,93788.47
2022-12-25T14:14:53.808Z,93802.03
2022-12-25T14:17:22.223Z,93798.84
2022-12-25T14:20:05.703Z,93805.69
2022-12-25T14:22:36.017Z,93819.44
2022-12-25T14:25:02.654Z,93817.69
2022-12-25T14:27:32.473Z,93819.59
2022-12-25T14:30:01.352Z,93820.31
2022-12-25T14:32:31.043Z,93825.97
2022-12-25T14:35:02.779Z,93828.94
2022-12-25T14:37:31.387Z,93828.19
2022-12-25T14:39:59.380Z,93819.75
2022-12-25T14:42:32.243Z,93818.78
2022-12-25T14:45:24.726Z,93804.41
2022-12-25T14:47:54.385Z,93807.53
2022-12-25T14:50:33.240Z,93818.97
2022-12-25T14:53:00.326Z,93822.19
2022-12-25T14:55:29.256Z,93821.53
2022-12-25T14:58:04.567Z,93818.78
2022-12-25T15:00:35.622Z,93824.38
2022-12-25T15:03:15.777Z,93840.00
2022-12-25T15:05:42.539Z,93829.16
2022-12-25T15:08:10.191Z,93831.16
2022-12-25T15:13:25.451Z,93836.81
2022-12-25T15:16:14.644Z,93835.34
2022-12-25T15:18:45.356Z,93828.03
2022-12-25T15:21:28.548Z,93836.69
2022-12-25T15:23:56.762Z,93831.66
2022-12-25T15:26:24.212Z,93833.63
2022-12-25T15:28:51.067Z,93836.41
2022-12-25T15:31:27.347Z,93830.53
2022-12-25T15:33:56.337Z,93834.09
2022-12-25T15:36:24.216Z,93831.38
2022-12-25T15:38:51.509Z,93835.69
2022-12-25T15:41:43.628Z,93844.63
2022-12-25T15:44:11.998Z,93848.94
2022-12-25T15:46:38.752Z,93850.13
2022-12-25T15:49:05.666Z,93860.63
2022-12-25T15:51:32.335Z,93858.69
2022-12-25T15:53:59.679Z,93862.97
2022-12-25T15:56:26.933Z,93869.63
2022-12-25T15:58:53.715Z,93868.84
2022-12-25T16:01:21.207Z,93866.13
2022-12-25T16:03:48.089Z,93864.56
2022-12-25T16:06:17.102Z,93859.47
2022-12-25T16:08:44.353Z,93870.00
2022-12-25T16:11:11.489Z,93869.63
2022-12-25T16:13:38.218Z,93875.81
2022-12-25T16:16:06.809Z,93867.28
2022-12-25T16:18:33.844Z,93870.00
2022-12-25T16:21:00.614Z,93870.00
2022-12-25T16:23:27.533Z,93881.28
2022-12-25T16:25:54.161Z,93883.59
2022-12-25T16:28:20.878Z,93882.44
2022-12-25T16:30:47.862Z,93884.31
2022-12-25T16:33:15.301Z,93880.81
2022-12-25T16:35:42.078Z,93882.38
2022-12-25T16:38:08.770Z,93877.69
2022-12-25T16:40:35.474Z,93882.00
2022-12-25T16:43:02.206Z,93875.00
2022-12-25T16:45:28.829Z,93876.53
2022-12-25T16:47:57.074Z,93875.75
2022-12-25T16:50:23.892Z,93879.66
2022-12-25T16:52:50.549Z,93882.00
2022-12-25T16:55:17.171Z,93880.41
2022-12-25T16:57:43.915Z,93883.88
2022-12-25T17:00:12.455Z,93895.19
2022-12-25T17:02:40.890Z,93883.13
2022-12-25T17:05:08.025Z,93879.97
2022-12-25T17:07:36.759Z,93879.22
2022-12-25T17:10:05.329Z,93886.59
2022-12-25T17:12:32.022Z,93889.72
2022-12-25T17:14:58.690Z,93878.44
2022-12-25T17:17:25.982Z,93877.25
2022-12-25T17:19:52.671Z,93881.47
2022-12-25T17:22:19.405Z,93890.06
2022-12-25T17:24:46.096Z,93885.78
2022-12-25T17:27:12.897Z,93886.53
2022-12-25T17:29:43.981Z,93893.88
2022-12-25T17:32:11.652Z,93888.78
2022-12-25T17:34:38.392Z,93902.66
2022-12-25T17:37:05.384Z,93900.34
2022-12-25T17:39:32.315Z,93898.41
2022-12-25T17:41:59.031Z,93904.66
2022-12-25T17:44:25.988Z,93897.25
2022-12-25T17:46:53.028Z,93906.16
2022-12-25T17:49:21.594Z,93913.94
2022-12-25T17:51:48.354Z,93915.81
2022-12-25T17:54:14.964Z,93910.34
2022-12-25T17:56:41.552Z,93915.06
2022-12-25T17:59:10.449Z,93911.22
2022-12-25T18:01:38.727Z,93915.91
2022-12-25T18:04:06.482Z,93919.44
2022-12-25T18:06:35.454Z,93929.16
2022-12-25T18:09:02.434Z,93935.41
2022-12-25T18:11:32.987Z,93937.75
2022-12-25T18:14:04.695Z,93937.00
2022-12-25T18:16:34.997Z,93933.91
2022-12-25T18:19:02.094Z,93931.53
2022-12-25T18:21:29.076Z,93933.88
2022-12-25T18:23:56.007Z,93934.66
2022-12-25T18:26:23.510Z,93929.22
2022-12-25T18:28:50.905Z,93926.56
2022-12-25T18:31:21.011Z,93920.34
2022-12-25T18:33:48.605Z,93911.78
2022-12-25T18:36:17.589Z,93913.34
2022-12-25T18:38:44.279Z,93903.22
2022-12-25T18:41:11.333Z,93898.88
2022-12-25T18:43:53.427Z,93912.09
2022-12-25T18:46:24.605Z,93909.75
2022-12-25T18:48:52.076Z,93914.06
2022-12-25T18:51:18.831Z,93912.50
2022-12-25T18:53:45.996Z,93916.78
2022-12-25T18:56:15.602Z,93909.38
2022-12-25T18:58:43.044Z,93916.34
2022-12-25T19:01:14.552Z,93912.09
2022-12-25T19:03:41.947Z,93908.53
2022-12-25T19:06:08.683Z,93911.63
2022-12-25T19:08:36.509Z,93908.50
2022-12-25T19:11:07.158Z,93912.00
2022-12-25T19:13:33.789Z,93913.53
2022-12-25T19:16:00.582Z,93912.00
2022-12-25T19:18:27.273Z,93915.13
2022-12-25T19:20:53.928Z,93918.22
2022-12-25T19:23:20.515Z,93922.50
2022-12-25T19:25:47.721Z,93932.66
2022-12-25T19:28:14.423Z,93935.34
2022-12-25T19:30:41.065Z,93946.22
2022-12-25T19:33:12.353Z,93946.28
2022-12-25T19:35:42.308Z,93937.78
2022-12-25T19:38:09.028Z,93944.00
2022-12-25T19:40:40.660Z,93944.00
2022-12-25T19:43:07.315Z,93954.50
2022-12-25T19:45:34.175Z,93948.28
2022-12-25T19:48:00.950Z,93954.50
2022-12-25T19:50:31.748Z,93963.09
2022-12-25T19:52:58.428Z,93959.97
2022-12-25T19:55:25.080Z,93965.06
2022-12-25T19:57:51.861Z,93962.34
2022-12-25T20:00:18.576Z,93967.41
2022-12-25T20:02:45.305Z,93967.06
2022-12-25T20:05:12.388Z,93971.34
2022-12-25T20:07:39.040Z,93974.44
2022-12-25T20:10:06.259Z,93976.81
2022-12-25T20:12:33.001Z,93977.59
2022-12-25T20:14:59.662Z,93967.06
2022-12-25T20:17:26.429Z,93966.69
2022-12-25T20:19:53.065Z,93968.25
2022-12-25T20:22:19.732Z,93970.59
2022-12-25T20:24:47.805Z,93968.22
2022-12-25T20:27:15.419Z,93974.84
2022-12-25T20:29:42.034Z,93973.28
2022-12-25T20:32:09.535Z,93976.03
2022-12-25T20:34:36.285Z,93979.53
2022-12-25T20:37:03.196Z,93981.84
2022-12-25T20:39:30.032Z,93983.03
2022-12-25T20:41:56.678Z,93988.06
2022-12-25T20:44:23.645Z,93986.88
2022-12-25T20:46:50.332Z,93986.09
2022-12-25T20:49:16.964Z,93980.22
2022-12-25T20:51:43.605Z,93970.53
2022-12-25T20:54:12.674Z,93984.13
2022-12-25T20:56:40.313Z,93973.22
2022-12-25T20:59:07.130Z,93986.03
2022-12-25T21:01:33.877Z,93984.50
2022-12-25T21:04:00.739Z,93986.09
2022-12-25T21:06:27.484Z,93998.56
2022-12-25T21:08:54.348Z,94000.53
2022-12-25T21:11:21.423Z,93987.31
2022-12-25T21:13:49.305Z,93993.94
2022-12-25T21:16:19.025Z,94001.72
2022-12-25T21:18:46.670Z,94000.56
2022-12-25T21:21:13.755Z,93988.91
2022-12-25T21:23:40.640Z,93995.59
2022-12-25T21:26:18.468Z,93993.97
2022-12-25T21:28:49.850Z,93994.38
2022-12-25T21:31:17.756Z,93997.44
2022-12-25T21:33:54.969Z,94000.97
2022-12-25T21:36:34.411Z,93997.06
2022-12-25T21:39:07.169Z,93993.94
2022-12-25T21:41:35.599Z,93997.72
2022-12-25T21:44:02.321Z,93993.09
2022-12-25T21:46:29.312Z,93987.97
2022-12-25T21:48:57.249Z,93998.78
2022-12-25T21:51:51.055Z,93997.22
2022-12-25T21:54:19.625Z,93999.53
2022-12-25T21:56:47.993Z,94002.25
2022-12-25T21:59:20.421Z,93999.53
2022-12-25T22:01:48.811Z,94002.59
2022-12-25T22:04:16.864Z,94008.41
2022-12-25T22:07:02.062Z,94006.03
2022-12-25T22:09:28.894Z,93998.97
2022-12-25T22:12:14.485Z,94000.13
2022-12-25T22:14:53.743Z,94008.19
2022-12-25T22:17:54.368Z,94003.47
2022-12-25T22:20:23.295Z,94014.31
2022-12-25T22:22:50.626Z,94015.03
2022-12-25T22:25:18.027Z,94019.63
2022-12-25T22:27:46.101Z,94023.47
2022-12-25T22:30:20.839Z,94019.16
2022-12-25T22:32:48.059Z,94016.38
2022-12-25T22:35:15.858Z,94017.47
2022-12-25T22:37:43.205Z,94025.47
2022-12-25T22:40:13.151Z,94023.03
2022-12-25T22:42:40.180Z,94033.97
2022-12-25T22:45:07.451Z,94032.50
2022-12-25T22:47:34.311Z,94037.00
2022-12-25T22:50:01.005Z,94040.28
2022-12-25T22:52:27.836Z,94046.19
2022-12-25T22:54:54.545Z,94044.69
2022-12-25T22:57:21.286Z,94046.63
2022-12-25T22:59:47.914Z,94044.44
2022-12-25T23:02:14.745Z,94044.91
2022-12-25T23:04:41.693Z,94043.63
2022-12-25T23:07:08.759Z,94042.47
2022-12-25T23:09:35.548Z,94043.28
2022-12-25T23:12:02.165Z,94047.16
2022-12-25T23:14:40.752Z,94041.31
2022-12-25T23:17:30.588Z,94047.13
2022-12-25T23:20:17.482Z,94040.47
2022-12-25T23:23:03.500Z,94044.00
2022-12-25T23:25:49.110Z,94042.81
2022-12-25T23:28:35.815Z,94044.34
2022-12-25T23:31:02.622Z,94040.06
2022-12-25T23:33:29.523Z,94049.44
2022-12-25T23:35:56.372Z,94047.44
2022-12-25T23:38:23.047Z,94048.16
2022-12-25T23:40:49.778Z,94047.72
2022-12-25T23:43:16.585Z,94044.94
2022-12-25T23:45:43.266Z,94052.00
2022-12-25T23:48:09.961Z,94045.06
2022-12-25T23:50:36.624Z,94041.97
2022-12-25T23:53:03.305Z,94046.63
2022-12-25T23:55:29.964Z,94046.31
2022-12-25T23:57:56.626Z,94048.66
